Map

Track Data

SID SEASON NUMBER BASIN SUBBASIN NAME ISO_TIME NATURE LAT LON WMO_WIND WMO_PRES WMO_AGENCY TRACK_TYPE DIST2LAND LANDFALL IFLAG USA_AGENCY USA_ATCF_ID USA_LAT USA_LON USA_RECORD USA_STATUS USA_WIND USA_PRES USA_SSHS USA_R34_NE USA_R34_SE USA_R34_SW USA_R34_NW USA_R50_NE USA_R50_SE USA_R50_SW USA_R50_NW USA_R64_NE USA_R64_SE USA_R64_SW USA_R64_NW USA_POCI USA_ROCI USA_RMW USA_EYE TOKYO_LAT TOKYO_LON TOKYO_GRADE TOKYO_WIND TOKYO_PRES TOKYO_R50_DIR TOKYO_R50_LONG TOKYO_R50_SHORT TOKYO_R30_DIR TOKYO_R30_LONG TOKYO_R30_SHORT TOKYO_LAND CMA_LAT CMA_LON CMA_CAT CMA_WIND CMA_PRES HKO_LAT HKO_LON HKO_CAT HKO_WIND HKO_PRES NEWDELHI_LAT NEWDELHI_LON NEWDELHI_GRADE NEWDELHI_WIND NEWDELHI_PRES NEWDELHI_CI NEWDELHI_DP NEWDELHI_POCI REUNION_LAT REUNION_LON REUNION_TYPE REUNION_WIND REUNION_PRES REUNION_TNUM REUNION_CI REUNION_RMW REUNION_R34_NE REUNION_R34_SE REUNION_R34_SW REUNION_R34_NW REUNION_R50_NE REUNION_R50_SE REUNION_R50_SW REUNION_R50_NW REUNION_R64_NE REUNION_R64_SE REUNION_R64_SW REUNION_R64_NW BOM_LAT BOM_LON BOM_TYPE BOM_WIND BOM_PRES BOM_TNUM BOM_CI BOM_RMW BOM_R34_NE BOM_R34_SE BOM_R34_SW BOM_R34_NW BOM_R50_NE BOM_R50_SE BOM_R50_SW BOM_R50_NW BOM_R64_NE BOM_R64_SE BOM_R64_SW BOM_R64_NW BOM_ROCI BOM_POCI BOM_EYE BOM_POS_METHOD BOM_PRES_METHOD NADI_LAT NADI_LON NADI_CAT NADI_WIND NADI_PRES WELLINGTON_LAT WELLINGTON_LON WELLINGTON_WIND WELLINGTON_PRES DS824_LAT DS824_LON DS824_STAGE DS824_WIND DS824_PRES TD9636_LAT TD9636_LON TD9636_STAGE TD9636_WIND TD9636_PRES TD9635_LAT TD9635_LON TD9635_WIND TD9635_PRES TD9635_ROCI NEUMANN_LAT NEUMANN_LON NEUMANN_CLASS NEUMANN_WIND NEUMANN_PRES MLC_LAT MLC_LON MLC_CLASS MLC_WIND MLC_PRES USA_GUST BOM_GUST BOM_GUST_PER REUNION_GUST REUNION_GUST_PER USA_SEAHGT USA_SEARAD_NE USA_SEARAD_SE USA_SEARAD_SW USA_SEARAD_NW STORM_SPEED STORM_DIR
1963144N09090 1963 46 NI BB NOT_NAMED 1963-05-23 18:00:00 TS 8.50000 90.0000 main 659 659 O________O____ jtwc_io IO031963 8.50000 90.0000 -1 8.50000 90.0000 TC 0 0
1963144N09090 1963 46 NI BB NOT_NAMED 1963-05-23 21:00:00 TS 8.49000 90.0000 main 659 659 P________P____ IO031963 8.49000 90.0000 -1 8.49000 90.0000 TC 1 0
1963144N09090 1963 46 NI BB NOT_NAMED 1963-05-24 00:00:00 TS 8.60000 90.0000 main 665 665 O________O____ jtwc_io IO031963 8.60000 90.0000 -1 8.60000 90.0000 TC 25 4 3
1963144N09090 1963 46 NI BB NOT_NAMED 1963-05-24 03:00:00 TS 8.90445 90.0000 main 682 682 P________PO___ IO031963 8.90500 90.0000 -1 8.90500 90.0000 TC 25 8.90000 90.0000 1 7 0
1963144N09090 1963 46 NI BB NOT_NAMED 1963-05-24 06:00:00 TS 9.29438 90.0000 main 707 707 O________OP___ jtwc_io IO031963 9.30000 90.0000 -1 9.30000 90.0000 TC 25 9.27189 90.0000 1 7 2
1963144N09090 1963 46 NI BB NOT_NAMED 1963-05-24 09:00:00 TS 9.64319 90.0000 main 727 727 P________PP___ IO031963 9.64250 90.0000 -1 9.64250 90.0000 TC 25 9.64503 90.0000 1 7 0
1963144N09090 1963 46 NI BB NOT_NAMED 1963-05-24 12:00:00 TS 10.0069 90.0000 main 756 756 O________OP___ jtwc_io IO031963 10.0000 90.0000 -1 10.0000 90.0000 TC 25 10.0206 90.0000 1 8 1
1963144N09090 1963 46 NI BB NOT_NAMED 1963-05-24 15:00:00 TS 10.4000 90.0000 main 769 734 P________PO___ IO031963 10.4000 90.0000 -1 10.4000 90.0000 TC 25 10.4000 90.0000 1 8 0
1963144N09090 1963 46 NI BB NOT_NAMED 1963-05-24 18:00:00 TS 10.7944 90.0000 main 734 709 O________OP___ jtwc_io IO031963 10.8000 90.0000 -1 10.8000 90.0000 TC 25 10.7831 90.0000 1 8 0
1963144N09090 1963 46 NI BB NOT_NAMED 1963-05-24 21:00:00 TS 11.1550 90.0000 main 701 676 P________PP___ IO031963 11.1500 90.0000 -1 11.1500 90.0000 TC 30 11.1650 90.0000 1 7 0
1963144N09090 1963 46 NI BB NOT_NAMED 1963-05-25 00:00:00 TS 11.5131 90.0000 main 676 645 O________OP___ jtwc_io IO031963 11.5000 90.0000 -1 11.5000 90.0000 TC 35 11.5394 90.0000 1 8 0
1963144N09090 1963 46 NI BB NOT_NAMED 1963-05-25 03:00:00 TS 11.9050 90.0000 main 645 613 P________PO___ IO031963 11.9075 90.0000 -1 11.9075 90.0000 TC 35 11.9000 90.0000 2 8 1
1963144N09090 1963 46 NI BB NOT_NAMED 1963-05-25 06:00:00 TS 12.2811 90.0000 main 613 591 O________OP___ jtwc_io IO031963 12.3000 90.0000 -1 12.3000 90.0000 TC 35 12.2434 90.0000 2 7 0
1963144N09090 1963 46 NI BB NOT_NAMED 1963-05-25 09:00:00 TS 12.6008 90.0000 main 591 570 P________PP___ IO031963 12.6150 90.0000 -1 12.6150 90.0000 TC 35 12.5725 90.0000 2 6 0
1963144N09090 1963 46 NI BB NOT_NAMED 1963-05-25 12:00:00 TS 12.8968 90.0000 main 570 550 O________OP___ jtwc_io IO031963 12.9000 90.0000 -1 12.9000 90.0000 TC 35 12.8903 90.0000 2 6 0
1963144N09090 1963 46 NI BB NOT_NAMED 1963-05-25 15:00:00 TS 13.2000 90.0000 main 550 531 P________PO___ IO031963 13.2000 90.0000 -1 13.2000 90.0000 TC 35 13.2000 90.0000 3 6 0
1963144N09090 1963 46 NI BB NOT_NAMED 1963-05-25 18:00:00 TS 13.5037 89.9987 main 531 514 O________OP___ jtwc_io IO031963 13.5000 90.0000 -1 13.5000 90.0000 TC 35 13.5112 89.9960 3 6 358
1963144N09090 1963 46 NI BB NOT_NAMED 1963-05-25 21:00:00 TS 13.8050 89.9975 main 514 498 P________PP___ IO031963 13.8000 90.0000 -1 13.8000 90.0000 TC 35 13.8150 89.9926 3 6 359
1963144N09090 1963 46 NI BB NOT_NAMED 1963-05-26 00:00:00 TS 14.1037 89.9976 main 498 485 O________OP___ jtwc_io IO031963 14.1000 90.0000 -1 14.1000 90.0000 TC 35 14.1112 89.9929 3 6 359
1963144N09090 1963 46 NI BB NOT_NAMED 1963-05-26 03:00:00 TS 14.4050 89.9950 main 485 473 P________PO___ IO031963 14.4075 89.9925 -1 14.4075 89.9925 TC 35 14.4000 90.0000 3 6 2
1963144N09090 1963 46 NI BB NOT_NAMED 1963-05-26 06:00:00 TS 14.6941 90.0032 main 473 466 O________OP___ jtwc_io IO031963 14.7000 90.0000 -1 14.7000 90.0000 TC 35 14.6822 90.0097 3 6 3
1963144N09090 1963 46 NI BB NOT_NAMED 1963-05-26 09:00:00 TS 14.9525 90.0375 main 463 448 P________PP___ IO031963 14.9500 90.0425 -1 14.9500 90.0425 TC 35 14.9575 90.0276 3 5 9
1963144N09090 1963 46 NI BB NOT_NAMED 1963-05-26 12:00:00 TS 15.2097 90.0855 main 448 442 O________OP___ jtwc_io IO031963 15.2000 90.1000 -1 15.2000 90.1000 TC 35 15.2290 90.0566 3 6 9
1963144N09090 1963 46 NI BB NOT_NAMED 1963-05-26 15:00:00 TS 15.5000 90.1333 main 442 428 P________PO___ IO031963 15.5000 90.1500 -1 15.5000 90.1500 TC 35 15.5000 90.1000 3 6 9
1963144N09090 1963 46 NI BB NOT_NAMED 1963-05-26 18:00:00 TS 15.7903 90.1855 main 428 427 O________OP___ jtwc_io IO031963 15.8000 90.2000 -1 15.8000 90.2000 TC 35 15.7709 90.1566 3 6 10
1963144N09090 1963 46 NI BB NOT_NAMED 1963-05-26 21:00:00 TS 16.0475 90.2376 main 427 417 P________PP___ IO031963 16.0500 90.2426 -1 16.0500 90.2426 TC 35 16.0425 90.2276 3 5 12
1963144N09090 1963 46 NI BB NOT_NAMED 1963-05-27 00:00:00 TS 16.3059 90.3033 main 418 409 O________OP___ jtwc_io IO031963 16.3000 90.3000 -1 16.3000 90.3000 TC 35 16.3178 90.3098 3 6 16
1963144N09090 1963 46 NI BB NOT_NAMED 1963-05-27 03:00:00 TS 16.5950 90.3950 main 411 404 P________PO___ IO031963 16.5925 90.3925 -1 16.5925 90.3925 TC 35 16.6000 90.4000 3 6 17
1963144N09090 1963 46 NI BB NOT_NAMED 1963-05-27 06:00:00 TS 16.9071 90.4989 main 407 384 O________OP___ jtwc_io IO031963 16.9000 90.5000 -1 16.9000 90.5000 TC 35 16.9213 90.4968 3 7 18
1963144N09090 1963 46 NI BB NOT_NAMED 1963-05-27 09:00:00 TS 17.2250 90.5999 main 384 358 P________PP___ IO031963 17.2150 90.6000 -1 17.2150 90.6000 TC 50 17.2450 90.5998 3 6 18
1963144N09090 1963 46 NI BB NOT_NAMED 1963-05-27 12:00:00 TS 17.5154 90.7010 main 358 334 O________OP___ jtwc_io IO031963 17.5000 90.7000 -1 17.5000 90.7000 TC 65 17.5463 90.7030 3 6 20
1963144N09090 1963 46 NI BB NOT_NAMED 1963-05-27 15:00:00 TS 17.7633 90.8050 main 334 319 P________PO___ IO031963 17.7450 90.8075 -1 17.7450 90.8075 TC 65 17.8000 90.8000 4 4 26
1963144N09090 1963 46 NI BB NOT_NAMED 1963-05-27 18:00:00 TS 17.8926 90.8929 main 319 319 O________OP___ jtwc_io IO031963 17.9000 90.9000 -1 17.9000 90.9000 TC 65 17.8778 90.8787 4 2 52
1963144N09090 1963 46 NI BB NOT_NAMED 1963-05-27 21:00:00 TS 17.8725 90.9504 main 310 310 P________PP___ IO031963 17.8475 90.9502 -1 17.8475 90.9502 TC 65 17.9225 90.9509 4 1 66
1963144N09090 1963 46 NI BB NOT_NAMED 1963-05-28 00:00:00 TS 17.9437 91.0075 main 310 276 O________OP___ jtwc_io IO031963 17.9000 91.0000 -1 17.9000 91.0000 TC 65 18.0310 91.0226 4 5 17
1963144N09090 1963 46 NI BB NOT_NAMED 1963-05-28 03:00:00 TS 18.3300 91.0950 main 276 221 P________PO___ IO031963 18.3450 91.0925 -1 18.3450 91.0925 TC 65 18.3000 91.1000 4 10 10
1963144N09090 1963 46 NI BB NOT_NAMED 1963-05-28 06:00:00 TS 18.9495 91.2001 main 221 165 O________OP___ jtwc_io IO031963 19.0000 91.2000 -1 19.0000 91.2000 TC 65 18.8486 91.2004 4 13 9
1963144N09090 1963 46 NI BB NOT_NAMED 1963-05-28 09:00:00 TS 19.6343 91.3023 main 165 113 P________PP___ IO031963 19.6700 91.3001 -1 19.6700 91.3001 TC 65 19.5629 91.3068 4 15 8
1963144N09090 1963 46 NI BB NOT_NAMED 1963-05-28 12:00:00 TS 20.3902 91.4033 main 109 60 O________OP___ jtwc_io IO031963 20.4000 91.4000 -1 20.4000 91.4000 TC 65 20.3706 91.4098 4 15 7
1963144N09090 1963 46 NI BB NOT_NAMED 1963-05-28 15:00:00 TS 21.1617 91.5050 main 53 30 P________PO___ IO031963 21.1425 91.5075 -1 21.1425 91.5075 TC 50 21.2000 91.5000 4 16 6
1963144N09090 1963 46 NI BB NOT_NAMED 1963-05-28 18:00:00 TS 21.9374 91.5880 main 30 0 O________OP___ jtwc_io IO031963 21.9000 91.6000 -1 21.9000 91.6000 TC 35 21.9934 91.5700 4 15 5
1963144N09090 1963 46 NI BB NOT_NAMED 1963-05-28 21:00:00 TS 22.6941 91.6441 main 0 0 P________PP___ IO031963 22.6525 91.6600 -1 22.6525 91.6600 TC 30 22.7495 91.6228 4 15 3
1963144N09090 1963 46 NI BB NOT_NAMED 1963-05-29 00:00:00 TS 23.4405 91.6821 main 0 0 O________OP___ jtwc_io IO031963 23.4000 91.7000 -1 23.4000 91.7000 TC 25 23.4810 91.6642 4 15 2
1963144N09090 1963 46 NI BB NOT_NAMED 1963-05-29 03:00:00 NR 24.2000 91.7000 main 0 __________O___ IO031963 -1 TC 24.2000 91.7000 1 15 2

About IBTrACS Database

This database is a web-friendly format of International Best Track Archive for Climate Stewardship (IBTrACS), a global best track data archive curated by NOAA dating back to 1842.

Updated: 2021-10-21